Marietta — WJ6405 — position and weather

sailwx.info

Track history (hours):
 
Tides and Currents Weather Stations Pressure Air Temp Water Temp Dewpoint Dewpoint Depression Visibility Wind Speed Wind Dir Waves Ship Positions

Marietta

Owner: STAR & CRESCENT BOAT CO, SAN DIEGO, CA. More information available from US FCC via Universal Licensing System and Coast Guard Vessel Documentation Center.

Last reported at 2018-Apr-16 03:31 UTC. Time now 2018-Apr-20 14:29 UTC.
Position N 32°42' W 117°10'.

MMSI: 367373960.

Date/timePositionNaut miles runAvg speedWind from/ knotsBaromVisibWave heightAir tempDewpointWater temp
2018-Apr-16 03:31N 32°42' W 117°10'0 0.0
2018-Apr-16 03:19N 32°42' W 117°10'0 0.0
2018-Apr-16 01:38N 32°42' W 117°10'0 0.0
2018-Apr-16 01:25N 32°42' W 117°10'4 1.9
2018-Apr-15 23:32N 32°40' W 117°13'0 4.9
2018-Apr-15 23:29N 32°40' W 117°13'10 8.1
2018-Apr-15 22:16N 32°34' W 117°23'2 7.7
2018-Apr-15 22:00N 32°36' W 117°23'2 0.6
2018-Apr-15 18:31N 32°37' W 117°21'010.4
2018-Apr-15 18:30N 32°37' W 117°21'3 5.6
2018-Apr-15 18:00N 32°35' W 117°23'5 9.4
2018-Apr-15 17:30N 32°37' W 117°18'4 0.2
2018-Apr-14 22:05N 32°36' W 117°22'0 1.5
2018-Apr-14 22:00N 32°36' W 117°22'  
2018-Apr-11 18:06N 32°38' W 117°22'2 9.4
2018-Apr-11 17:56N 32°39' W 117°23'11 3.9
2018-Apr-11 14:59N 32°42' W 117°10'0 0.0
2018-Apr-11 14:30N 32°42' W 117°10'0 0.0
2018-Apr-11 12:10N 32°42' W 117°10'0 0.0
2018-Apr-11 12:00N 32°42' W 117°10'0 0.0
2018-Apr-11 11:30N 32°42' W 117°10'0 0.0
2018-Apr-11 11:00N 32°42' W 117°10'0 0.0
2018-Apr-11 10:30N 32°42' W 117°10'0 0.0
2018-Apr-11 10:00N 32°42' W 117°10'0 0.0
2018-Apr-11 08:37N 32°42' W 117°10'0 0.0
2018-Apr-11 08:30N 32°42' W 117°10'0 0.0
2018-Apr-11 08:00N 32°42' W 117°10'0 0.0
2018-Apr-11 05:26N 32°42' W 117°10'0 0.0
2018-Apr-11 05:00N 32°42' W 117°10'0 0.0
2018-Apr-11 04:30N 32°42' W 117°10'0 0.0
2018-Apr-11 04:01N 32°42' W 117°10'0 0.0
2018-Apr-11 03:31N 32°42' W 117°10'0 0.0
2018-Apr-10 03:46N 32°42' W 117°10'  
Track history (hours):
 
Tides and Currents Weather Stations Pressure Air Temp Water Temp Dewpoint Dewpoint Depression Visibility Wind Speed Wind Dir Waves Ship Positions

Marietta

Owner: STAR & CRESCENT BOAT CO, SAN DIEGO, CA. More information available from US FCC via Universal Licensing System and Coast Guard Vessel Documentation Center.

Last reported at 2018-Apr-16 03:31 UTC. Time now 2018-Apr-20 14:29 UTC.
Position N 32°42' W 117°10'.

MMSI: 367373960.

Date/timePositionNaut miles runAvg speedWind from/ knotsBaromVisibWave heightAir tempDewpointWater temp
2018-Apr-16 03:31N 32°42' W 117°10'0 0.0
2018-Apr-16 03:19N 32°42' W 117°10'0 0.0
2018-Apr-16 01:38N 32°42' W 117°10'0 0.0
2018-Apr-16 01:25N 32°42' W 117°10'4 1.9
2018-Apr-15 23:32N 32°40' W 117°13'0 4.9
2018-Apr-15 23:29N 32°40' W 117°13'10 8.1
2018-Apr-15 22:16N 32°34' W 117°23'2 7.7
2018-Apr-15 22:00N 32°36' W 117°23'2 0.6
2018-Apr-15 18:31N 32°37' W 117°21'010.4
2018-Apr-15 18:30N 32°37' W 117°21'3 5.6
2018-Apr-15 18:00N 32°35' W 117°23'5 9.4
2018-Apr-15 17:30N 32°37' W 117°18'4 0.2
2018-Apr-14 22:05N 32°36' W 117°22'0 1.5
2018-Apr-14 22:00N 32°36' W 117°22'  
2018-Apr-11 18:06N 32°38' W 117°22'2 9.4
2018-Apr-11 17:56N 32°39' W 117°23'11 3.9
2018-Apr-11 14:59N 32°42' W 117°10'0 0.0
2018-Apr-11 14:30N 32°42' W 117°10'0 0.0
2018-Apr-11 12:10N 32°42' W 117°10'0 0.0
2018-Apr-11 12:00N 32°42' W 117°10'0 0.0
2018-Apr-11 11:30N 32°42' W 117°10'0 0.0
2018-Apr-11 11:00N 32°42' W 117°10'0 0.0
2018-Apr-11 10:30N 32°42' W 117°10'0 0.0
2018-Apr-11 10:00N 32°42' W 117°10'0 0.0
2018-Apr-11 08:37N 32°42' W 117°10'0 0.0
2018-Apr-11 08:30N 32°42' W 117°10'0 0.0
2018-Apr-11 08:00N 32°42' W 117°10'0 0.0
2018-Apr-11 05:26N 32°42' W 117°10'0 0.0
2018-Apr-11 05:00N 32°42' W 117°10'0 0.0
2018-Apr-11 04:30N 32°42' W 117°10'0 0.0
2018-Apr-11 04:01N 32°42' W 117°10'0 0.0
2018-Apr-11 03:31N 32°42' W 117°10'0 0.0
2018-Apr-10 03:46N 32°42' W 117°10'  

Dump ship's entire track history